KFHU

Sierra Vista Municipal-Libby AAF Airport

Fort Huachuca Sierra Vista, Arizona, USA
TAF KFHU 241001Z 2410/2516 20004KT 9999 SCT060 BKN100 QNH3004INS BECMG 2417/2418 22009KT 9999 VCSH SCT080 QNH3003INS TEMPO 2418/2422 24010G15KT 9000 -SHRA BKN080 BECMG 2500/2501 25006KT 9999 NSW SCT050 BKN080 QNH3005INS BECMG 2511/2512 VRB04KT 9999 BKN080 QNH3008INS TX29/2423Z TN20/2412Z
Issued Valid From Valid To
Sep-24 @ 10:01 UTC
(4 hours ago)
Sep-24 @ 10:00 UTC
(4 hours ago)
Sep-25 @ 16:00 UTC
(-1 days ago)
Sep-24 @ 10:00 to Sep-24 @ 17:00
TAF KFHU 241001Z 2410/2516 20004KT 9999 SCT060 BKN100 QNH3004INS
Wind Visibility Clouds Readings
200° at 4 knots Greater than 6 miles
  • Scattered at 6,000' AGL
  • Broken at 10,000' AGL
Altimeter 30.03" Hg
Pressure 1017 hPa
Becoming Sep-24 @ 17:00 to Sep-25 @ 00:00
BECMG 2417/2418 22009KT 9999 VCSH SCT080 QNH3003INS
Wind Visibility Clouds Readings
220° at 9 knots Greater than 6 miles
  • Scattered at 8,000' AGL
Altimeter 30.03" Hg
Pressure 1017 hPa
Temporary Sep-24 @ 18:00 to Sep-24 @ 22:00
TEMPO 2418/2422 24010G15KT 9000 -SHRA BKN080
Wind Visibility Clouds Conditions
240° at 10 knots
 Gusting to 15 knots
5.6 miles
  • Broken at 8,000' AGL
  • Light Rain
Becoming Sep-25 @ 00:00 to Sep-25 @ 11:00
BECMG 2500/2501 25006KT 9999 NSW SCT050 BKN080 QNH3005INS
Wind Visibility Clouds Conditions Readings
250° at 6 knots Greater than 6 miles
  • Scattered at 5,000' AGL
  • Broken at 8,000' AGL
Altimeter 30.06" Hg
Pressure 1018 hPa
Becoming Sep-25 @ 11:00 to Sep-25 @ 16:00
BECMG 2511/2512 VRB04KT 9999 BKN080 QNH3008INS TX29/2423Z TN20/2412Z
Wind Visibility Clouds Conditions Readings
Variable at 4 knots Greater than 6 miles
  • Broken at 8,000' AGL
Altimeter 30.09" Hg
Pressure 1019 hPa
TAF KFHU 241001Z 2410/2516 20004KT 9999 SCT060 BKN100 QNH3004INS BECMG 2417/2418 22009KT 9999 VCSH SCT080 QNH3003INS TEMPO 2418/2422 24010G15KT 9000 -SHRA BKN080 BECMG 2500/2501 25006KT 9999 NSW SCT050 BKN080 QNH3005INS BECMG 2511/2512 VRB04KT 9999 BKN080 QNH3008INS TX29/2423Z TN20/2412Z
Issued Sep-24 @ 10:01 UTC
(4 hours ago)
Valid From Sep-24 @ 10:00 UTC
(4 hours ago)
Valid To Sep-25 @ 16:00 UTC
(-1 days ago)
Sep-24 @ 10:00 - Sep-24 @ 17:00
Wind Visibility
200° at 4 knots Greater than 6 miles
Clouds
  • Scattered at 6,000' AGL
  • Broken at 10,000' AGL
Becoming Sep-24 @ 17:00 - Sep-25 @ 00:00
Wind Visibility
220° at 9 knots Greater than 6 miles
Clouds
  • Scattered at 8,000' AGL
Temporary Sep-24 @ 18:00 - Sep-24 @ 22:00
Wind Visibility
240° at 10 knots
 Gusting to 15 knots
5.6 miles
Clouds
  • Broken at 8,000' AGL
Conditions
  • Light Rain
Becoming Sep-25 @ 00:00 - Sep-25 @ 11:00
Wind Visibility
250° at 6 knots Greater than 6 miles
Clouds
  • Scattered at 5,000' AGL
  • Broken at 8,000' AGL
Conditions
Becoming Sep-25 @ 11:00 - Sep-25 @ 16:00
Wind Visibility
Variable at 4 knots Greater than 6 miles
Clouds
  • Broken at 8,000' AGL
Conditions